createdAt,value
2023-02-15T00:01:13.955Z,90.27
2023-02-15T00:06:15.742Z,90.37
2023-02-15T00:11:39.136Z,90.79
2023-02-15T00:16:43.091Z,90.74
2023-02-15T00:21:45.309Z,90.89
2023-02-15T00:26:48.133Z,90.79
2023-02-15T00:31:50.069Z,91.10
2023-02-15T00:36:52.700Z,91.23
2023-02-15T00:41:54.408Z,91.03
2023-02-15T00:46:56.066Z,90.75
2023-02-15T00:51:57.924Z,90.88
2023-02-15T00:56:59.862Z,90.73
2023-02-15T01:02:01.617Z,90.73
2023-02-15T01:07:05.006Z,90.55
2023-02-15T01:12:09.666Z,90.45
2023-02-15T01:17:11.274Z,90.36
2023-02-15T01:22:12.996Z,90.71
2023-02-15T01:27:14.725Z,90.70
2023-02-15T01:32:16.399Z,90.79
2023-02-15T01:37:18.909Z,90.86
2023-02-15T01:42:25.148Z,90.94
2023-02-15T01:47:43.936Z,90.64
2023-02-15T01:52:54.079Z,90.67
2023-02-15T01:57:55.966Z,90.71
2023-02-15T02:02:58.078Z,90.75
2023-02-15T02:08:03.037Z,90.58
2023-02-15T02:13:07.843Z,90.66
2023-02-15T02:18:32.706Z,90.90
2023-02-15T02:24:05.413Z,91.20
2023-02-15T02:29:07.508Z,91.23
2023-02-15T02:34:30.851Z,91.30
2023-02-15T02:39:48.835Z,91.19
2023-02-15T02:44:58.178Z,91.12
2023-02-15T02:50:22.235Z,90.58
2023-02-15T02:55:39.030Z,90.70
2023-02-15T03:01:09.047Z,90.73
2023-02-15T03:06:18.887Z,90.60
2023-02-15T03:11:20.824Z,90.47
2023-02-15T03:16:29.615Z,90.11
2023-02-15T03:21:36.157Z,90.29
2023-02-15T03:26:46.448Z,90.30
2023-02-15T03:31:54.775Z,90.20
2023-02-15T03:37:04.301Z,90.48
2023-02-15T03:42:17.654Z,90.71
2023-02-15T03:47:25.031Z,91.25
2023-02-15T03:52:30.590Z,91.10
2023-02-15T03:57:51.022Z,90.76
2023-02-15T04:03:00.086Z,91.05
2023-02-15T04:08:02.742Z,90.90
2023-02-15T04:13:04.403Z,90.78
2023-02-15T04:18:06.601Z,90.72
2023-02-15T04:23:27.249Z,90.83
2023-02-15T04:28:28.983Z,90.39
2023-02-15T04:33:30.803Z,90.54
2023-02-15T04:38:32.499Z,89.99
2023-02-15T04:43:34.153Z,89.79
2023-02-15T04:48:36.053Z,89.58
2023-02-15T04:53:37.860Z,89.19
2023-02-15T04:58:42.003Z,89.63
2023-02-15T05:03:43.651Z,89.63
2023-02-15T05:08:45.423Z,89.76
2023-02-15T05:13:47.743Z,90.17
2023-02-15T05:18:49.470Z,89.50
2023-02-15T05:23:51.255Z,89.53
2023-02-15T05:28:52.909Z,90.15
2023-02-15T05:33:54.704Z,90.23
2023-02-15T05:38:56.901Z,90.09
2023-02-15T05:43:58.625Z,89.98
2023-02-15T05:49:00.350Z,90.00
2023-02-15T05:54:02.022Z,89.59
2023-02-15T05:59:03.753Z,89.85
2023-02-15T06:04:05.512Z,89.41
2023-02-15T06:09:07.310Z,89.37
2023-02-15T06:14:09.060Z,89.46
2023-02-15T06:19:10.691Z,89.27
2023-02-15T06:24:12.622Z,89.61
2023-02-15T06:29:14.480Z,90.07
2023-02-15T06:34:16.868Z,88.86
2023-02-15T06:39:18.595Z,89.21
2023-02-15T06:44:20.293Z,89.48
2023-02-15T06:49:21.944Z,89.52
2023-02-15T06:54:23.609Z,89.21
2023-02-15T06:59:25.334Z,89.30
2023-02-15T07:04:29.597Z,89.60
2023-02-15T07:09:31.413Z,89.33
2023-02-15T07:14:33.140Z,89.54
2023-02-15T07:19:34.985Z,89.55
2023-02-15T07:24:37.025Z,89.39
2023-02-15T07:29:38.833Z,89.31
2023-02-15T07:34:41.462Z,89.57
2023-02-15T07:39:43.131Z,89.74
2023-02-15T07:44:44.777Z,89.62
2023-02-15T07:49:46.532Z,89.60
2023-02-15T07:54:48.259Z,89.59
2023-02-15T07:59:50.109Z,89.65
2023-02-15T08:04:51.891Z,89.86
2023-02-15T08:09:54.715Z,89.80
2023-02-15T08:14:56.434Z,89.43
2023-02-15T08:19:58.309Z,89.60
2023-02-15T08:25:00.313Z,89.63
2023-02-15T08:30:02.122Z,89.51
2023-02-15T08:35:03.976Z,89.38
2023-02-15T08:40:06.275Z,89.36
2023-02-15T08:45:08.524Z,89.65
2023-02-15T08:50:10.371Z,89.72
2023-02-15T08:55:12.102Z,89.31
2023-02-15T09:00:14.305Z,89.15
2023-02-15T09:05:16.029Z,89.06
2023-02-15T09:10:17.989Z,89.13
2023-02-15T09:15:19.792Z,89.33
2023-02-15T09:20:22.751Z,89.59
2023-02-15T09:25:24.302Z,89.53
2023-02-15T09:30:26.182Z,89.30
2023-02-15T09:35:27.924Z,89.22
2023-02-15T09:40:39.109Z,89.52
2023-02-15T09:45:59.873Z,89.79
2023-02-15T09:51:17.906Z,89.80
2023-02-15T09:56:38.553Z,89.64
2023-02-15T10:01:53.528Z,89.64
2023-02-15T10:07:09.290Z,89.59
2023-02-15T10:12:25.399Z,89.46
2023-02-15T10:17:58.085Z,89.07
2023-02-15T10:23:09.834Z,89.09
2023-02-15T10:28:19.660Z,89.15
2023-02-15T10:33:40.148Z,88.52
2023-02-15T10:38:49.078Z,88.40
2023-02-15T10:44:06.401Z,88.69
2023-02-15T10:49:27.372Z,88.69
2023-02-15T10:54:46.938Z,88.54
2023-02-15T11:00:16.159Z,88.36
2023-02-15T11:05:40.644Z,88.48
2023-02-15T11:10:49.709Z,88.23
2023-02-15T11:15:58.525Z,88.29
2023-02-15T11:21:18.992Z,87.85
2023-02-15T11:26:26.428Z,88.02
2023-02-15T11:31:48.330Z,87.98
2023-02-15T11:36:53.189Z,87.97
2023-02-15T11:42:01.785Z,88.04
2023-02-15T11:47:03.995Z,87.80
2023-02-15T11:52:14.251Z,87.52
2023-02-15T11:57:24.426Z,87.19
2023-02-15T12:02:30.974Z,87.41
2023-02-15T12:07:42.602Z,87.07
2023-02-15T12:12:44.774Z,86.45
2023-02-15T12:17:54.571Z,87.02
2023-02-15T12:23:03.389Z,86.39
2023-02-15T12:28:25.116Z,86.73
2023-02-15T12:33:37.371Z,86.91
2023-02-15T12:38:39.519Z,86.91
2023-02-15T12:43:41.368Z,86.63
2023-02-15T12:48:43.132Z,86.42
2023-02-15T12:53:45.276Z,86.33
2023-02-15T12:58:47.061Z,86.38
2023-02-15T13:03:51.649Z,86.14
2023-02-15T13:09:12.878Z,85.84
2023-02-15T13:14:20.944Z,86.15
2023-02-15T13:19:41.863Z,86.15
2023-02-15T13:24:48.342Z,85.73
2023-02-15T13:29:59.326Z,85.50
2023-02-15T13:35:03.527Z,85.32
2023-02-15T13:40:12.738Z,85.39
2023-02-15T13:45:36.708Z,85.60
2023-02-15T13:50:51.873Z,85.64
2023-02-15T13:56:02.967Z,85.58
2023-02-15T14:01:20.347Z,85.74
2023-02-15T14:07:01.018Z,85.11
2023-02-15T14:12:27.624Z,86.06
2023-02-15T14:17:45.391Z,86.16
2023-02-15T14:23:01.249Z,86.21
2023-02-15T14:28:23.984Z,86.17
2023-02-15T14:33:38.529Z,86.05
2023-02-15T14:38:52.825Z,86.27
2023-02-15T14:44:16.718Z,86.00
2023-02-15T14:49:23.533Z,86.40
2023-02-15T14:54:25.247Z,86.78
2023-02-15T14:59:37.068Z,87.12
2023-02-15T15:05:01.516Z,87.13
2023-02-15T15:10:18.533Z,87.72
2023-02-15T15:15:32.256Z,86.91
2023-02-15T15:20:50.210Z,86.80
2023-02-15T15:26:15.136Z,86.92
2023-02-15T15:31:29.169Z,86.86
2023-02-15T15:36:51.176Z,87.39
2023-02-15T15:42:07.670Z,87.29
2023-02-15T15:47:39.396Z,87.58
2023-02-15T15:52:50.035Z,87.24
2023-02-15T15:57:56.753Z,87.42
2023-02-15T16:02:58.739Z,87.57
2023-02-15T16:08:00.436Z,87.53
2023-02-15T16:13:02.995Z,87.67
2023-02-15T16:18:05.013Z,88.00
2023-02-15T16:23:34.504Z,87.77
2023-02-15T16:28:36.379Z,87.83
2023-02-15T16:33:39.765Z,87.86
2023-02-15T16:38:44.234Z,87.81
2023-02-15T16:43:49.163Z,87.82
2023-02-15T16:48:54.842Z,87.81
2023-02-15T16:54:01.343Z,87.83
2023-02-15T16:59:03.346Z,87.96
2023-02-15T17:04:35.602Z,88.03
2023-02-15T17:09:58.523Z,88.29
2023-02-15T17:15:00.616Z,88.31
2023-02-15T17:20:02.994Z,88.38
2023-02-15T17:25:05.479Z,88.32
2023-02-15T17:30:21.922Z,88.40
2023-02-15T17:35:26.054Z,88.31
2023-02-15T17:40:31.334Z,88.61
2023-02-15T17:45:36.678Z,88.39
2023-02-15T17:50:38.873Z,88.53
2023-02-15T17:55:41.197Z,88.49
2023-02-15T18:01:05.518Z,88.69
2023-02-15T18:06:26.077Z,88.76
2023-02-15T18:11:37.618Z,88.94
2023-02-15T18:16:43.248Z,88.88
2023-02-15T18:21:46.481Z,88.69
2023-02-15T18:26:48.485Z,88.78
2023-02-15T18:31:54.044Z,89.14
2023-02-15T18:36:57.230Z,89.38
2023-02-15T18:41:59.150Z,89.81
2023-02-15T18:47:00.873Z,90.15
2023-02-15T18:52:02.855Z,90.41
2023-02-15T18:57:05.426Z,89.89
2023-02-15T19:02:13.455Z,89.88
2023-02-15T19:07:26.820Z,89.53
2023-02-15T19:12:28.765Z,89.82
2023-02-15T19:17:30.442Z,90.31
2023-02-15T19:22:34.024Z,90.88
2023-02-15T19:27:36.149Z,91.23
2023-02-15T19:32:37.858Z,91.12
2023-02-15T19:37:42.461Z,91.44
2023-02-15T19:42:44.546Z,91.21
2023-02-15T19:47:48.238Z,91.03
2023-02-15T19:52:50.400Z,91.21
2023-02-15T19:57:53.267Z,91.04
2023-02-15T20:02:56.647Z,91.09
2023-02-15T20:07:58.641Z,90.81
2023-02-15T20:13:02.219Z,91.08
2023-02-15T20:18:04.289Z,91.20
2023-02-15T20:23:07.153Z,90.91
2023-02-15T20:28:18.948Z,91.12
2023-02-15T20:33:24.020Z,91.15
2023-02-15T20:38:28.885Z,91.13
2023-02-15T20:43:30.775Z,91.29
2023-02-15T20:48:32.500Z,91.38
2023-02-15T20:53:34.193Z,91.58
2023-02-15T20:58:36.681Z,91.32
2023-02-15T21:03:38.598Z,90.83
2023-02-15T21:08:41.276Z,90.78
2023-02-15T21:13:43.132Z,90.98
2023-02-15T21:18:44.880Z,90.72
2023-02-15T21:23:47.572Z,91.01
2023-02-15T21:28:50.315Z,90.50
2023-02-15T21:33:52.219Z,90.91
2023-02-15T21:38:54.272Z,91.46
2023-02-15T21:44:15.083Z,91.08
2023-02-15T21:49:19.165Z,91.19
2023-02-15T21:54:21.461Z,91.37
2023-02-15T21:59:25.450Z,91.46
2023-02-15T22:04:30.089Z,91.07
2023-02-15T22:09:31.851Z,91.30
2023-02-15T22:14:41.441Z,91.13
2023-02-15T22:19:47.483Z,91.10
2023-02-15T22:24:49.416Z,91.18
2023-02-15T22:29:52.099Z,90.89
2023-02-15T22:34:54.315Z,90.73
2023-02-15T22:39:56.151Z,90.91
2023-02-15T22:44:58.426Z,90.98
2023-02-15T22:50:00.386Z,90.92
2023-02-15T22:55:02.074Z,90.50
2023-02-15T23:00:06.237Z,90.64
2023-02-15T23:05:17.774Z,91.00
2023-02-15T23:10:23.241Z,90.75
2023-02-15T23:15:24.935Z,90.77
2023-02-15T23:20:26.715Z,90.72
2023-02-15T23:25:28.655Z,90.55
2023-02-15T23:30:30.828Z,90.65
2023-02-15T23:35:32.637Z,90.63
2023-02-15T23:40:53.040Z,90.73
2023-02-15T23:45:54.724Z,90.69
2023-02-15T23:50:57.087Z,90.89
2023-02-15T23:56:02.501Z,90.19
